| time (UTC) | temp F | wind direction | speed MPH | gust MPH | rain 1hr in | rain 24hr in | rain mn in | humidity % | barometer mb |
| 20260503215358 | 79 | 98 | 0.0 | 0.0 | 0.00 | 0.01 | 0.01 | 38 | 1016.8 |
| 20260503214856 | 79 | 124 | 0.0 | 0.0 | 0.00 | 0.01 | 0.01 | 40 | 1017.0 |
| 20260503214353 | 79 | 123 | 1.0 | 1.0 | 0.00 | 0.01 | 0.01 | 38 | 1017.1 |
| 20260503213850 | 79 | 118 | 1.0 | 1.0 | 0.00 | 0.01 | 0.01 | 39 | 1017.2 |
| 20260503213348 | 79 | 117 | 0.0 | 0.0 | 0.00 | 0.01 | 0.01 | 40 | 1017.3 |
| 20260503212845 | 79 | 117 | 0.0 | 1.0 | 0.00 | 0.01 | 0.01 | 39 | 1017.4 |
| 20260503212343 | 79 | 99 | 1.0 | 1.0 | 0.00 | 0.01 | 0.01 | 39 | 1017.4 |
| 20260503211839 | 79 | 100 | 0.0 | 0.0 | 0.00 | 0.01 | 0.01 | 37 | 1017.3 |
| 20260503211336 | 80 | 146 | 1.0 | 2.0 | 0.00 | 0.01 | 0.01 | 39 | 1017.5 |
| 20260503210831 | 79 | 182 | 1.0 | 1.0 | 0.00 | 0.01 | 0.01 | 39 | 1017.5 |
| 20260503210329 | 80 | 115 | 0.0 | 0.0 | 0.00 | 0.01 | 0.01 | 41 | 1017.9 |
| 20260503205824 | 80 | 116 | 0.0 | 0.0 | 0.00 | 0.01 | 0.01 | 38 | 1018.0 |
| 20260503205321 | 79 | 130 | 1.0 | 1.0 | 0.00 | 0.01 | 0.01 | 41 | 1017.9 |
| 20260503204817 | 79 | 110 | 1.0 | 1.0 | 0.00 | 0.01 | 0.01 | 40 | 1018.0 |
| 20260503204315 | 79 | 137 | 1.0 | 1.0 | 0.00 | 0.01 | 0.01 | 41 | 1018.3 |
| 20260503203812 | 79 | 132 | 1.0 | 2.0 | 0.00 | 0.01 | 0.01 | 40 | 1018.4 |
| 20260503203309 | 80 | 133 | 0.0 | 1.0 | 0.00 | 0.01 | 0.01 | 39 | 1018.3 |
| 20260503202806 | 79 | 163 | 0.0 | 1.0 | 0.00 | 0.01 | 0.01 | 39 | 1018.5 |
| 20260503202304 | 78 | 116 | 0.0 | 0.0 | 0.00 | 0.01 | 0.01 | 43 | 1018.7 |
| 20260503201802 | 80 | 99 | 0.0 | 0.0 | 0.00 | 0.01 | 0.01 | 42 | 1018.7 |
| 20260503201259 | 80 | 112 | 0.0 | 0.0 | 0.00 | 0.01 | 0.01 | 41 | 1018.8 |
| 20260503200756 | 79 | 63 | 0.0 | 0.0 | 0.00 | 0.01 | 0.01 | 41 | 1018.8 |
| 20260503200252 | 80 | 143 | 2.0 | 2.0 | 0.00 | 0.01 | 0.01 | 41 | 1019.0 |
| 20260503195750 | 79 | 324 | 0.0 | 1.0 | 0.00 | 0.01 | 0.01 | 40 | 1018.9 |
| 20260503195246 | 80 | 128 | 0.0 | 0.0 | 0.00 | 0.01 | 0.01 | 39 | 1019.0 |
| 20260503194744 | 78 | 111 | 1.0 | 1.0 | 0.00 | 0.01 | 0.01 | 42 | 1019.2 |
| 20260503194239 | 78 | 181 | 1.0 | 2.0 | 0.00 | 0.01 | 0.01 | 42 | 1019.2 |
| 20260503193735 | 77 | 114 | 0.0 | 0.0 | 0.00 | 0.01 | 0.01 | 41 | 1019.4 |
| 20260503193232 | 78 | 136 | 0.0 | 1.0 | 0.00 | 0.01 | 0.01 | 39 | 1019.5 |
| 20260503192727 | 78 | 216 | 3.0 | 3.0 | 0.00 | 0.01 | 0.01 | 43 | 1019.4 |
| 20260503192222 | 78 | 135 | 0.0 | 0.0 | 0.00 | 0.01 | 0.01 | 43 | 1019.5 |
| 20260503191720 | 77 | 102 | 0.0 | 0.0 | 0.00 | 0.01 | 0.01 | 45 | 1019.4 |
| 20260503191217 | 77 | 85 | 0.0 | 0.0 | 0.00 | 0.01 | 0.01 | 44 | 1019.6 |
| 20260503190714 | 78 | 149 | 0.0 | 1.0 | 0.00 | 0.01 | 0.01 | 44 | 1019.6 |
| 20260503190210 | 78 | 125 | 1.0 | 1.0 | 0.00 | 0.01 | 0.01 | 42 | 1019.7 |
| 20260503185708 | 78 | 127 | 0.0 | 0.0 | 0.00 | 0.01 | 0.01 | 42 | 1019.6 |
| 20260503185203 | 79 | 105 | 0.0 | 1.0 | 0.00 | 0.01 | 0.01 | 41 | 1020.0 |
| 20260503184657 | 79 | 104 | 0.0 | 0.0 | 0.00 | 0.01 | 0.01 | 43 | 1020.0 |
| 20260503184154 | 78 | 13 | 1.0 | 1.0 | 0.00 | 0.01 | 0.01 | 41 | 1020.0 |
| 20260503183650 | 78 | 240 | 1.0 | 1.0 | 0.00 | 0.01 | 0.01 | 43 | 1020.3 |
| 20260503183148 | 78 | 107 | 0.0 | 0.0 | 0.00 | 0.01 | 0.01 | 44 | 1020.3 |
| 20260503182646 | 78 | 183 | 1.0 | 1.0 | 0.00 | 0.01 | 0.01 | 43 | 1020.2 |
| 20260503182144 | 78 | 107 | 0.0 | 0.0 | 0.00 | 0.01 | 0.01 | 44 | 1020.4 |
| 20260503181641 | 77 | 115 | 0.0 | 0.0 | 0.00 | 0.01 | 0.01 | 42 | 1020.5 |
| 20260503181138 | 77 | 144 | 2.0 | 2.0 | 0.00 | 0.01 | 0.01 | 42 | 1020.8 |
| 20260503180635 | 77 | 114 | 1.0 | 1.0 | 0.00 | 0.01 | 0.01 | 44 | 1021.0 |
| 20260503180132 | 76 | 357 | 1.0 | 1.0 | 0.00 | 0.01 | 0.01 | 44 | 1020.9 |
| 20260503175629 | 76 | 163 | 2.0 | 2.0 | 0.00 | 0.01 | 0.01 | 45 | 1021.0 |
| 20260503175126 | 76 | 139 | 4.0 | 6.0 | 0.00 | 0.01 | 0.01 | 43 | 1021.0 |
| 20260503174623 | 76 | 87 | 0.0 | 0.0 | 0.00 | 0.01 | 0.01 | 44 | 1021.0 |
| 20260503174120 | 77 | 111 | 0.0 | 0.0 | 0.00 | 0.01 | 0.01 | 45 | 1021.3 |
| 20260503173615 | 76 | 117 | 0.0 | 0.0 | 0.00 | 0.01 | 0.01 | 44 | 1021.0 |
| 20260503173112 | 76 | 178 | 0.0 | 1.0 | 0.00 | 0.01 | 0.01 | 48 | 1021.3 |
| 20260503172609 | 76 | 93 | 1.0 | 2.0 | 0.00 | 0.01 | 0.01 | 44 | 1021.4 |
| 20260503172106 | 76 | 138 | 0.0 | 0.0 | 0.00 | 0.01 | 0.01 | 48 | 1021.3 |
| 20260503171603 | 76 | 121 | 1.0 | 1.0 | 0.00 | 0.01 | 0.01 | 47 | 1021.5 |
| 20260503171100 | 75 | 166 | 2.0 | 2.0 | 0.00 | 0.01 | 0.01 | 49 | 1021.4 |
| 20260503170556 | 75 | 112 | 0.0 | 0.0 | 0.00 | 0.01 | 0.01 | 45 | 1021.5 |
| 20260503150949 | 69 | 118 | 0.0 | 0.0 | 0.07 | 0.01 | 0.01 | 65 | 1022.0 |
| 20260503150445 | 68 | 100 | 0.0 | 0.0 | 0.00 | 0.00 | 0.00 | 63 | 1022.0 |
| 20260503131338 | 51 | 102 | 0.0 | 0.0 | 0.00 | 0.00 | 0.00 | 99 | 1021.5 |
| 20260503130836 | 51 | 102 | 0.0 | 0.0 | 0.00 | 0.00 | 0.00 | 99 | 1021.5 |
| 20260503130333 | 51 | 102 | 0.0 | 0.0 | 0.00 | 0.00 | 0.00 | 99 | 1021.5 |
| 20260503110727 | 48 | 103 | 0.0 | 0.0 | 0.00 | 0.00 | 0.00 | 99 | 1020.4 |
| 20260503110224 | 48 | 103 | 0.0 | 0.0 | 0.00 | 0.00 | 0.00 | 99 | 1020.3 |
| 20260503100150 | 49 | 102 | 0.0 | 0.0 | 0.00 | 0.00 | 0.00 | 99 | 1020.0 |
| 20260503090109 | 49 | 102 | 0.0 | 0.0 | 0.00 | 0.00 | 0.00 | 99 | 1019.7 |
| 20260503081539 | 50 | 102 | 0.0 | 0.0 | 0.00 | 0.00 | 0.00 | 99 | 1019.7 |
| 20260503081036 | 50 | 102 | 0.0 | 0.0 | 0.00 | 0.00 | 0.00 | 99 | 1019.7 |
| 20260503080532 | 50 | 102 | 0.0 | 0.0 | 0.00 | 0.00 | 0.00 | 99 | 1020.0 |
| 20260503072506 | 51 | 102 | 0.0 | 0.0 | 0.00 | 0.00 | 0.00 | 99 | 1019.7 |
| 20260503072003 | 51 | 102 | 0.0 | 0.0 | 0.00 | 0.00 | 0.00 | 99 | 1019.8 |
| 20260503071500 | 51 | 102 | 0.0 | 0.0 | 0.00 | 0.00 | 0.00 | 99 | 1020.0 |
| 20260503070956 | 51 | 102 | 0.0 | 0.0 | 0.00 | 0.00 | 0.00 | 99 | 1020.0 |
| 20260503070453 | 51 | 102 | 0.0 | 0.0 | 0.00 | 0.00 | 0.00 | 99 | 1019.8 |
| 20260503054912 | 52 | 102 | 0.0 | 0.0 | 0.00 | 0.00 | 0.00 | 97 | 1019.9 |
| 20260503054408 | 52 | 102 | 0.0 | 0.0 | 0.00 | 0.00 | 0.00 | 97 | 1020.1 |
| 20260503053906 | 52 | 102 | 0.0 | 0.0 | 0.00 | 0.00 | 0.00 | 97 | 1020.1 |
| 20260503053404 | 53 | 102 | 0.0 | 0.0 | 0.00 | 0.00 | 0.00 | 97 | 1019.8 |
| 20260503052900 | 53 | 102 | 0.0 | 0.0 | 0.00 | 0.00 | 0.00 | 97 | 1020.0 |
| 20260503052357 | 53 | 102 | 0.0 | 0.0 | 0.00 | 0.00 | 0.00 | 97 | 1019.8 |
| 20260503051853 | 53 | 102 | 0.0 | 0.0 | 0.00 | 0.00 | 0.00 | 97 | 1019.8 |
| 20260503051349 | 53 | 102 | 0.0 | 0.0 | 0.00 | 0.00 | 0.00 | 97 | 1019.8 |
| 20260503050847 | 53 | 101 | 0.0 | 0.0 | 0.00 | 0.00 | 0.00 | 97 | 1019.7 |
| 20260503050343 | 53 | 101 | 0.0 | 0.0 | 0.00 | 0.00 | 0.00 | 97 | 1020.0 |
| 20260503045840 | 53 | 101 | 0.0 | 0.0 | 0.00 | 0.02 | 0.02 | 96 | 1019.7 |
| 20260503045338 | 53 | 101 | 0.0 | 0.0 | 0.00 | 0.02 | 0.02 | 96 | 1019.9 |
| 20260503044834 | 53 | 101 | 0.0 | 0.0 | 0.00 | 0.02 | 0.02 | 96 | 1019.7 |
| 20260503044331 | 53 | 101 | 0.0 | 0.0 | 0.00 | 0.02 | 0.02 | 96 | 1019.9 |
| 20260503043828 | 53 | 101 | 0.0 | 0.0 | 0.00 | 0.02 | 0.02 | 96 | 1019.9 |
| 20260503043325 | 53 | 101 | 0.0 | 0.0 | 0.00 | 0.02 | 0.02 | 96 | 1019.7 |
| 20260503042821 | 53 | 101 | 0.0 | 0.0 | 0.00 | 0.02 | 0.02 | 95 | 1019.8 |
| 20260503042318 | 53 | 101 | 0.0 | 0.0 | 0.00 | 0.02 | 0.02 | 95 | 1019.9 |
| 20260503041814 | 53 | 101 | 0.0 | 0.0 | 0.00 | 0.02 | 0.02 | 95 | 1019.8 |
| 20260503041312 | 54 | 101 | 0.0 | 0.0 | 0.00 | 0.02 | 0.02 | 95 | 1019.9 |
| 20260503040810 | 54 | 101 | 0.0 | 0.0 | 0.00 | 0.02 | 0.02 | 94 | 1020.1 |
| 20260503040307 | 54 | 101 | 0.0 | 0.0 | 0.00 | 0.02 | 0.02 | 94 | 1019.9 |
| 20260503035803 | 54 | 101 | 0.0 | 0.0 | 0.00 | 0.02 | 0.02 | 93 | 1020.1 |
| 20260503035301 | 54 | 101 | 0.0 | 0.0 | 0.00 | 0.02 | 0.02 | 93 | 1019.9 |
| 20260503034758 | 54 | 101 | 0.0 | 0.0 | 0.00 | 0.02 | 0.02 | 92 | 1020.0 |
| 20260503034255 | 55 | 101 | 0.0 | 0.0 | 0.00 | 0.02 | 0.02 | 92 | 1019.7 |
| 20260503033752 | 55 | 101 | 0.0 | 0.0 | 0.00 | 0.02 | 0.02 | 92 | 1020.0 |
| 20260503033250 | 55 | 101 | 0.0 | 0.0 | 0.00 | 0.02 | 0.02 | 92 | 1019.9 |
| 20260503032748 | 55 | 101 | 0.0 | 0.0 | 0.00 | 0.02 | 0.02 | 92 | 1019.9 |
| 20260503032246 | 55 | 101 | 0.0 | 0.0 | 0.00 | 0.02 | 0.02 | 92 | 1019.6 |
| 20260503031743 | 55 | 101 | 0.0 | 0.0 | 0.00 | 0.02 | 0.02 | 91 | 1019.7 |
| 20260503031241 | 56 | 101 | 0.0 | 0.0 | 0.00 | 0.02 | 0.02 | 91 | 1019.6 |
| 20260503030737 | 56 | 101 | 0.0 | 0.0 | 0.00 | 0.02 | 0.02 | 90 | 1019.7 |
| 20260503030234 | 56 | 101 | 0.0 | 0.0 | 0.00 | 0.02 | 0.02 | 89 | 1019.6 |
| 20260503025730 | 56 | 101 | 0.0 | 0.0 | 0.00 | 0.02 | 0.02 | 87 | 1019.6 |
| 20260503025228 | 56 | 101 | 0.0 | 0.0 | 0.00 | 0.02 | 0.02 | 86 | 1019.6 |
| 20260503024725 | 57 | 101 | 0.0 | 0.0 | 0.00 | 0.02 | 0.02 | 86 | 1019.6 |
| 20260503024222 | 57 | 109 | 0.0 | 0.0 | 0.00 | 0.02 | 0.02 | 85 | 1019.4 |
| 20260503023719 | 57 | 110 | 0.0 | 0.0 | 0.00 | 0.02 | 0.02 | 84 | 1019.4 |
| 20260503023215 | 57 | 110 | 0.0 | 0.0 | 0.00 | 0.02 | 0.02 | 86 | 1019.2 |
| 20260503022711 | 57 | 110 | 0.0 | 0.0 | 0.00 | 0.02 | 0.02 | 84 | 1019.3 |
| 20260503022206 | 57 | 110 | 0.0 | 0.0 | 0.00 | 0.02 | 0.02 | 85 | 1019.2 |
| 20260503021703 | 58 | 110 | 0.0 | 0.0 | 0.00 | 0.02 | 0.02 | 84 | 1019.2 |
| 20260503021159 | 58 | 110 | 0.0 | 0.0 | 0.00 | 0.02 | 0.02 | 84 | 1019.4 |
| 20260503020657 | 59 | 110 | 0.0 | 0.0 | 0.00 | 0.02 | 0.02 | 83 | 1019.1 |
| 20260503020154 | 59 | 110 | 0.0 | 0.0 | 0.00 | 0.02 | 0.02 | 81 | 1019.0 |
| 20260503015651 | 60 | 110 | 0.0 | 0.0 | 0.00 | 0.02 | 0.02 | 79 | 1019.1 |
| 20260503015148 | 60 | 110 | 0.0 | 0.0 | 0.00 | 0.02 | 0.02 | 77 | 1018.8 |
| 20260503014643 | 60 | 110 | 0.0 | 0.0 | 0.00 | 0.02 | 0.02 | 74 | 1018.9 |
| 20260503014142 | 60 | 110 | 0.0 | 0.0 | 0.00 | 0.02 | 0.02 | 73 | 1018.8 |
| 20260503013638 | 61 | 110 | 0.0 | 0.0 | 0.00 | 0.02 | 0.02 | 72 | 1018.9 |
| 20260503013137 | 61 | 110 | 0.0 | 0.0 | 0.00 | 0.02 | 0.02 | 71 | 1018.8 |
| 20260503012633 | 62 | 110 | 0.0 | 0.0 | 0.05 | 0.02 | 0.02 | 71 | 1018.8 |
| 20260503012130 | 62 | 110 | 0.0 | 0.0 | 0.05 | 0.02 | 0.02 | 73 | 1018.7 |
| 20260503011627 | 63 | 110 | 0.0 | 0.0 | 0.00 | 0.01 | 0.01 | 74 | 1018.5 |
| 20260503011124 | 63 | 110 | 0.0 | 0.0 | 0.00 | 0.01 | 0.01 | 68 | 1018.6 |
| 20260503010620 | 64 | 110 | 0.0 | 0.0 | 0.00 | 0.01 | 0.01 | 69 | 1018.5 |
| 20260503010118 | 64 | 110 | 0.0 | 0.0 | 0.00 | 0.01 | 0.01 | 74 | 1018.4 |
| 20260503005614 | 65 | 110 | 0.0 | 0.0 | 0.00 | 0.01 | 0.01 | 72 | 1018.5 |
| 20260503005112 | 65 | 110 | 0.0 | 0.0 | 0.00 | 0.01 | 0.01 | 69 | 1018.3 |
| 20260503004608 | 65 | 110 | 0.0 | 0.0 | 0.00 | 0.01 | 0.01 | 68 | 1018.3 |
| 20260503004107 | 66 | 110 | 0.0 | 0.0 | 0.00 | 0.01 | 0.01 | 71 | 1018.0 |
| 20260503003603 | 66 | 110 | 0.0 | 0.0 | 0.00 | 0.01 | 0.01 | 70 | 1018.1 |
| 20260503003100 | 67 | 110 | 0.0 | 0.0 | 0.00 | 0.01 | 0.01 | 67 | 1018.2 |
| 20260503002556 | 67 | 110 | 0.0 | 0.0 | 0.00 | 0.01 | 0.01 | 68 | 1018.1 |
| 20260503002054 | 68 | 110 | 0.0 | 0.0 | 0.00 | 0.01 | 0.01 | 69 | 1018.2 |
| 20260503001550 | 68 | 114 | 0.0 | 0.0 | 0.00 | 0.01 | 0.01 | 68 | 1018.2 |
| 20260503001047 | 69 | 114 | 0.0 | 0.0 | 0.00 | 0.01 | 0.01 | 63 | 1018.0 |
| 20260503000544 | 69 | 114 | 0.0 | 0.0 | 0.00 | 0.01 | 0.01 | 60 | 1018.1 |
| 20260503000041 | 69 | 109 | 0.0 | 0.0 | 0.00 | 0.01 | 0.01 | 58 | 1018.0 |
| 20260502235538 | 70 | 96 | 0.0 | 0.0 | 0.00 | 0.01 | 0.01 | 52 | 1018.0 |
| 20260502235036 | 70 | 98 | 0.0 | 0.0 | 0.00 | 0.01 | 0.01 | 55 | 1018.2 |
| 20260502234532 | 71 | 102 | 0.0 | 0.0 | 0.00 | 0.01 | 0.01 | 50 | 1018.0 |
| 20260502234030 | 71 | 100 | 0.0 | 0.0 | 0.00 | 0.01 | 0.01 | 50 | 1018.1 |
| 20260502233529 | 72 | 117 | 0.0 | 0.0 | 0.00 | 0.01 | 0.01 | 46 | 1018.0 |
| 20260502233027 | 72 | 95 | 0.0 | 0.0 | 0.00 | 0.01 | 0.01 | 49 | 1018.0 |
| 20260502232523 | 72 | 134 | 1.0 | 1.0 | 0.00 | 0.01 | 0.01 | 41 | 1017.9 |
| 20260502232020 | 72 | 108 | 0.0 | 0.0 | 0.00 | 0.01 | 0.01 | 45 | 1018.1 |
| 20260502231517 | 72 | 69 | 0.0 | 0.0 | 0.00 | 0.01 | 0.01 | 51 | 1018.1 |
| 20260502231015 | 72 | 97 | 1.0 | 1.0 | 0.00 | 0.01 | 0.01 | 51 | 1017.9 |
| 20260502230513 | 72 | 150 | 0.0 | 0.0 | 0.00 | 0.01 | 0.01 | 48 | 1017.9 |
| 20260502230011 | 72 | 90 | 0.0 | 0.0 | 0.00 | 0.01 | 0.01 | 43 | 1017.8 |
| 20260502225506 | 72 | 113 | 1.0 | 1.0 | 0.00 | 0.01 | 0.01 | 47 | 1017.9 |
| 20260502225003 | 72 | 104 | 0.0 | 0.0 | 0.00 | 0.01 | 0.01 | 57 | 1018.0 |
| 20260502224459 | 72 | 94 | 0.0 | 0.0 | 0.00 | 0.01 | 0.01 | 46 | 1018.1 |
| 20260502223956 | 73 | 106 | 0.0 | 0.0 | 0.00 | 0.01 | 0.01 | 46 | 1018.0 |
| 20260502223454 | 73 | 126 | 1.0 | 1.0 | 0.00 | 0.01 | 0.01 | 44 | 1018.2 |
| 20260502222952 | 73 | 96 | 0.0 | 1.0 | 0.00 | 0.01 | 0.01 | 47 | 1018.0 |
| 20260502222449 | 73 | 117 | 1.0 | 2.0 | 0.00 | 0.01 | 0.01 | 46 | 1018.0 |
| 20260502221945 | 73 | 124 | 0.0 | 0.0 | 0.00 | 0.01 | 0.01 | 43 | 1017.9 |
| 20260502221441 | 73 | 121 | 0.0 | 0.0 | 0.00 | 0.01 | 0.01 | 41 | 1018.3 |
| 20260502220939 | 74 | 109 | 0.0 | 0.0 | 0.00 | 0.01 | 0.01 | 44 | 1018.0 |
| 20260502220434 | 74 | 96 | 0.0 | 0.0 | 0.00 | 0.01 | 0.01 | 39 | 1018.2 |
| 20260502215931 | 74 | 119 | 0.0 | 1.0 | 0.00 | 0.01 | 0.01 | 41 | 1018.2 |